Time;durP1;ratioP1;P1;durP2;ratioP2;P2;SDS_P1;SDS_P2;PMS_P1;PMS_P2;Temp;Humidity;BMP_temperature;BMP_pressure;BME280_temperature;BME280_humidity;BME280_pressure;Samples;Min_cycle;Max_cycle;Signal;HPM_P1;HPM_P2
2022/08/07 00:00:21;;;;;;;10.77;9.77;;;18.80;73.80;;;;;;5013505;28;20116;-64
2022/08/07 00:02:47;;;;;;;10.70;9.60;;;18.70;73.70;;;;;;5012387;28;20033;-63
2022/08/07 00:05:13;;;;;;;10.95;9.48;;;18.70;73.50;;;;;;5012645;28;20045;-63
2022/08/07 00:07:38;;;;;;;10.38;9.38;;;18.70;73.50;;;;;;5013967;28;20125;-64
2022/08/07 00:10:04;;;;;;;11.95;9.85;;;18.60;73.70;;;;;;5014780;28;20072;-62
2022/08/07 00:12:30;;;;;;;10.68;9.25;;;18.60;73.70;;;;;;5009694;28;20033;-64
2022/08/07 00:14:56;;;;;;;11.02;9.52;;;18.60;73.70;;;;;;5007439;28;20384;-63
2022/08/07 00:17:22;;;;;;;13.02;11.82;;;18.60;73.90;;;;;;5004383;28;20065;-63
2022/08/07 00:19:48;;;;;;;13.18;11.98;;;18.50;74.00;;;;;;5005023;28;20636;-63
2022/08/07 00:22:14;;;;;;;12.70;11.50;;;18.50;74.90;;;;;;5005642;28;20037;-63
2022/08/07 00:24:39;;;;;;;14.18;12.77;;;18.50;74.10;;;;;;5007821;28;20042;-63
2022/08/07 00:27:05;;;;;;;14.45;12.95;;;18.50;74.20;;;;;;5006632;28;20096;-63
2022/08/07 00:29:31;;;;;;;13.38;11.93;;;18.50;74.40;;;;;;5007242;28;20038;-64
2022/08/07 00:31:58;;;;;;;14.80;13.32;;;18.40;74.60;;;;;;5001565;28;20033;-61
2022/08/07 00:34:25;;;;;;;14.48;12.98;;;18.40;74.70;;;;;;5006835;28;20050;-65
2022/08/07 00:36:51;;;;;;;13.70;12.40;;;18.30;74.90;;;;;;5004771;28;20096;-63
2022/08/07 00:39:18;;;;;;;12.65;11.38;;;18.20;75.10;;;;;;5012912;28;20465;-63
2022/08/07 00:41:56;;;;;;;13.80;12.52;;;18.20;75.40;;;;;;5000227;28;20042;-63
2022/08/07 00:44:22;;;;;;;13.57;12.27;;;18.10;76.50;;;;;;5004205;28;20524;-61
2022/08/07 00:46:48;;;;;;;12.57;11.35;;;18.20;76.00;;;;;;5000138;28;20041;-62
2022/08/07 00:49:14;;;;;;;14.07;12.70;;;18.20;75.80;;;;;;5004777;28;20497;-63
2022/08/07 00:51:40;;;;;;;12.25;11.05;;;18.20;75.80;;;;;;5002820;28;20069;-64
2022/08/07 00:54:06;;;;;;;12.43;11.13;;;18.20;75.80;;;;;;5005435;28;20043;-63
2022/08/07 00:56:33;;;;;;;13.93;12.52;;;18.30;75.60;;;;;;5002322;28;20662;-63
2022/08/07 00:58:59;;;;;;;13.85;12.55;;;18.30;75.50;;;;;;5004711;28;20515;-63
2022/08/07 01:01:25;;;;;;;14.70;13.23;;;18.30;75.30;;;;;;4999642;28;20042;-64
2022/08/07 01:03:51;;;;;;;13.57;12.18;;;18.30;75.20;;;;;;5002021;28;20705;-63
2022/08/07 01:06:17;;;;;;;15.65;14.02;;;18.20;75.10;;;;;;5005242;28;20442;-61
2022/08/07 01:08:44;;;;;;;12.88;11.57;;;18.20;75.50;;;;;;5001816;28;20041;-63
2022/08/07 01:11:11;;;;;;;15.13;12.40;;;18.20;75.70;;;;;;5001637;28;20038;-63
2022/08/07 01:13:38;;;;;;;13.52;12.13;;;18.20;75.60;;;;;;4998103;28;20065;-63
2022/08/07 01:16:06;;;;;;;14.38;12.98;;;18.20;75.80;;;;;;5003096;28;20042;-63
2022/08/07 01:18:32;;;;;;;13.88;11.98;;;18.20;76.00;;;;;;5003219;28;20439;-63
2022/08/07 01:21:08;;;;;;;13.07;11.73;;;18.20;76.00;;;;;;5005587;28;20486;-63
2022/08/07 01:23:34;;;;;;;12.77;11.52;;;18.20;76.60;;;;;;5000929;28;20112;-62
2022/08/07 01:26:00;;;;;;;12.75;11.45;;;18.20;76.00;;;;;;5005484;28;20046;-63
2022/08/07 01:28:27;;;;;;;12.75;11.07;;;18.20;75.90;;;;;;5003456;28;20041;-62
2022/08/07 01:30:54;;;;;;;11.73;10.70;;;18.20;76.10;;;;;;5006852;28;20076;-63
2022/08/07 01:33:20;;;;;;;12.73;11.27;;;18.20;76.10;;;;;;5001877;28;20592;-63
2022/08/07 01:35:46;;;;;;;11.20;10.02;;;18.20;76.00;;;;;;5006199;28;20038;-61
2022/08/07 01:38:11;;;;;;;10.50;9.50;;;18.20;75.80;;;;;;5000856;28;20061;-63
2022/08/07 01:40:39;;;;;;;9.93;9.02;;;18.20;75.10;;;;;;5001966;28;20045;-63
2022/08/07 01:43:05;;;;;;;11.20;9.20;;;18.20;74.70;;;;;;5005947;28;20049;-63
2022/08/07 01:45:32;;;;;;;9.02;8.13;;;18.10;74.30;;;;;;4999980;28;20064;-62
2022/08/07 01:47:58;;;;;;;8.45;7.75;;;18.10;74.20;;;;;;5003538;28;20038;-60
2022/08/07 01:50:25;;;;;;;8.57;7.68;;;18.00;74.40;;;;;;5008008;28;20045;-61
2022/08/07 01:52:55;;;;;;;7.75;7.05;;;18.00;73.90;;;;;;5005059;28;20045;-62
2022/08/07 01:55:27;;;;;;;7.43;6.72;;;17.90;73.60;;;;;;5003170;28;20042;-62
2022/08/07 01:57:56;;;;;;;6.97;6.38;;;17.90;73.40;;;;;;5006260;28;20045;-63
2022/08/07 02:00:25;;;;;;;6.47;5.88;;;17.80;73.10;;;;;;5002566;28;20107;-63
2022/08/07 02:03:00;;;;;;;5.40;4.90;;;17.70;72.60;;;;;;5002746;28;20126;-61
2022/08/07 02:05:46;;;;;;;5.32;4.82;;;17.70;72.50;;;;;;5002716;28;20041;-62
2022/08/07 02:08:16;;;;;;;5.80;4.65;;;17.70;72.40;;;;;;5010061;28;20041;-63
2022/08/07 02:10:44;;;;;;;4.90;4.40;;;17.60;72.20;;;;;;5010112;28;20064;-63
2022/08/07 02:13:10;;;;;;;4.78;4.38;;;17.60;72.10;;;;;;5010282;28;20405;-62
2022/08/07 02:15:38;;;;;;;4.60;4.30;;;17.50;72.10;;;;;;5007698;28;20040;-61
2022/08/07 02:18:08;;;;;;;4.95;4.10;;;17.40;72.20;;;;;;5008896;28;20418;-63
2022/08/07 02:20:34;;;;;;;5.38;3.97;;;17.50;72.10;;;;;;5008651;28;20066;-62
2022/08/07 02:23:02;;;;;;;3.85;3.53;;;17.40;71.70;;;;;;5011202;28;20061;-63
2022/08/07 02:25:30;;;;;;;4.70;4.03;;;17.30;71.80;;;;;;5012436;28;20065;-63
2022/08/07 02:27:58;;;;;;;4.40;4.00;;;17.30;71.90;;;;;;5013502;28;20038;-63
2022/08/07 02:30:24;;;;;;;6.70;3.95;;;17.30;72.00;;;;;;5014167;28;20489;-62
2022/08/07 02:32:51;;;;;;;3.88;3.53;;;17.20;71.90;;;;;;5015443;28;20041;-63
2022/08/07 02:35:18;;;;;;;4.10;3.70;;;17.20;72.00;;;;;;5015668;28;20041;-61
2022/08/07 02:37:45;;;;;;;4.05;3.75;;;17.20;72.10;;;;;;5008990;28;20065;-63
2022/08/07 02:40:11;;;;;;;4.57;3.83;;;17.10;72.10;;;;;;5008989;28;20045;-63
2022/08/07 02:42:38;;;;;;;3.97;3.67;;;17.10;73.00;;;;;;5007278;28;20037;-63
2022/08/07 02:45:07;;;;;;;5.28;3.78;;;17.10;72.10;;;;;;5006712;28;20033;-63
2022/08/07 02:47:33;;;;;;;4.20;3.80;;;17.10;72.20;;;;;;5006337;28;20095;-64
2022/08/07 02:49:58;;;;;;;7.78;3.83;;;17.00;72.50;;;;;;5005540;28;20054;-63
2022/08/07 02:52:40;;;;;;;4.43;4.03;;;17.00;72.50;;;;;;5009169;28;20079;-64
2022/08/07 02:55:20;;;;;;;3.97;3.67;;;17.00;72.70;;;;;;5008624;28;20533;-63
2022/08/07 02:57:47;;;;;;;3.88;3.30;;;17.00;72.60;;;;;;5007701;28;20034;-62
2022/08/07 03:00:14;;;;;;;4.30;3.90;;;17.00;72.50;;;;;;5009894;28;20245;-64
2022/08/07 03:02:44;;;;;;;3.47;3.20;;;17.00;72.60;;;;;;5008023;28;20045;-64
2022/08/07 03:05:10;;;;;;;3.60;3.30;;;16.90;72.80;;;;;;5007451;28;20041;-64
2022/08/07 03:07:37;;;;;;;4.00;3.60;;;16.90;72.80;;;;;;5004737;28;20553;-63
2022/08/07 03:10:04;;;;;;;4.50;4.10;;;16.90;72.80;;;;;;5007555;28;20034;-64
2022/08/07 03:12:31;;;;;;;4.88;3.50;;;16.90;72.70;;;;;;5004835;28;20453;-63
2022/08/07 03:14:57;;;;;;;3.90;3.60;;;16.90;72.80;;;;;;5003518;28;20060;-64
2022/08/07 03:17:23;;;;;;;4.60;3.83;;;16.80;72.70;;;;;;5005977;28;20409;-63
2022/08/07 03:19:50;;;;;;;4.00;3.55;;;16.80;72.90;;;;;;5007125;28;20044;-63
2022/08/07 03:22:17;;;;;;;4.20;3.80;;;16.80;73.10;;;;;;5007072;28;20045;-64
2022/08/07 03:24:43;;;;;;;5.10;4.00;;;16.80;73.20;;;;;;5006046;28;20091;-62
2022/08/07 03:27:10;;;;;;;3.67;3.38;;;16.80;73.30;;;;;;5006528;28;20445;-63
2022/08/07 03:29:46;;;;;;;3.95;3.63;;;16.80;73.50;;;;;;5006872;28;20080;-61
2022/08/07 03:32:13;;;;;;;4.63;4.22;;;16.80;73.70;;;;;;5006603;28;20040;-63
2022/08/07 03:34:40;;;;;;;5.32;3.83;;;16.90;73.40;;;;;;5002291;28;20506;-63
2022/08/07 03:37:08;;;;;;;3.97;3.67;;;16.80;73.40;;;;;;5001645;28;22245;-63
2022/08/07 03:39:35;;;;;;;5.03;3.83;;;16.80;73.50;;;;;;5008269;28;20037;-63
2022/08/07 03:42:03;;;;;;;4.28;3.88;;;16.80;73.50;;;;;;5004962;28;20048;-63
2022/08/07 03:44:29;;;;;;;4.05;3.75;;;16.80;73.50;;;;;;5005732;28;20043;-64
2022/08/07 03:46:55;;;;;;;4.78;3.80;;;16.80;73.60;;;;;;5008311;28;20034;-63
2022/08/07 03:49:21;;;;;;;4.22;3.75;;;16.80;73.60;;;;;;5003768;28;20030;-63
2022/08/07 03:51:48;;;;;;;3.90;3.63;;;16.70;73.60;;;;;;5002835;28;20537;-63
2022/08/07 03:54:14;;;;;;;4.43;3.80;;;16.70;73.70;;;;;;5006324;28;20041;-63
2022/08/07 03:56:40;;;;;;;4.90;3.88;;;16.70;73.70;;;;;;5007062;28;20034;-63
2022/08/07 03:59:06;;;;;;;4.22;3.90;;;16.70;73.90;;;;;;5008894;28;20426;-64
2022/08/07 04:01:34;;;;;;;4.72;3.67;;;16.70;74.00;;;;;;5003622;28;20042;-63
2022/08/07 04:04:00;;;;;;;3.90;3.60;;;16.60;74.10;;;;;;5001594;28;20065;-63
2022/08/07 04:06:26;;;;;;;5.63;4.10;;;16.60;74.20;;;;;;5006656;28;20117;-62
2022/08/07 04:08:52;;;;;;;4.45;4.05;;;16.60;74.40;;;;;;5006779;28;20406;-63
2022/08/07 04:11:18;;;;;;;3.95;3.65;;;16.60;74.40;;;;;;5002374;28;20416;-63
2022/08/07 04:13:45;;;;;;;4.40;4.10;;;16.60;74.40;;;;;;5000227;28;20120;-63
2022/08/07 04:16:12;;;;;;;4.45;4.15;;;16.60;74.40;;;;;;5006025;28;20045;-63
2022/08/07 04:18:37;;;;;;;4.70;4.40;;;16.60;74.40;;;;;;5004609;28;20030;-62
2022/08/07 04:21:03;;;;;;;4.65;4.35;;;16.50;74.40;;;;;;5003249;28;20459;-63
2022/08/07 04:23:31;;;;;;;4.95;4.47;;;16.50;74.70;;;;;;5003797;28;20034;-63
2022/08/07 04:25:57;;;;;;;6.22;4.57;;;16.50;75.00;;;;;;5009102;28;20112;-62
2022/08/07 04:28:23;;;;;;;5.10;4.60;;;16.50;75.10;;;;;;5005667;28;20037;-63
2022/08/07 04:30:49;;;;;;;4.80;4.38;;;16.40;75.20;;;;;;5003049;28;20519;-61
2022/08/07 04:33:16;;;;;;;4.55;4.15;;;16.40;75.40;;;;;;5006501;28;20054;-64
2022/08/07 04:35:45;;;;;;;4.50;4.13;;;16.40;75.40;;;;;;5003102;28;20037;-63
2022/08/07 04:38:11;;;;;;;4.45;4.15;;;16.40;75.60;;;;;;5005426;28;20038;-62
2022/08/07 04:40:42;;;;;;;4.28;3.97;;;16.40;75.50;;;;;;5008230;28;20049;-62
2022/08/07 04:43:08;;;;;;;5.28;4.20;;;16.30;75.80;;;;;;5003691;28;20112;-63
2022/08/07 04:45:58;;;;;;;4.88;4.47;;;16.40;75.80;;;;;;4998636;28;20033;-60
2022/08/07 04:48:55;;;;;;;5.85;4.75;;;16.40;76.80;;;;;;5002422;28;20061;-63
2022/08/07 04:51:33;;;;;;;5.60;5.10;;;16.40;76.60;;;;;;5008443;28;20052;-63
2022/08/07 04:54:32;;;;;;;5.20;4.80;;;16.40;76.10;;;;;;5003499;28;20037;-63
2022/08/07 04:57:25;;;;;;;5.18;4.68;;;16.40;77.00;;;;;;5004870;28;20033;-63
2022/08/07 04:59:56;;;;;;;6.03;5.07;;;16.40;77.20;;;;;;5004510;28;20046;-61
2022/08/07 05:02:40;;;;;;;5.90;5.40;;;16.40;77.00;;;;;;5006269;28;20046;-63
2022/08/07 05:05:16;;;;;;;5.97;5.45;;;16.40;77.00;;;;;;4984357;28;20053;-64
2022/08/07 05:07:54;;;;;;;7.00;5.90;;;16.40;77.70;;;;;;4994386;28;20040;-64
2022/08/07 05:10:39;;;;;;;6.10;5.60;;;16.50;78.00;;;;;;5006209;28;20532;-63
2022/08/07 05:13:25;;;;;;;6.50;5.90;;;16.40;78.60;;;;;;5001190;28;20046;-63
2022/08/07 05:15:52;;;;;;;6.15;5.55;;;16.50;79.10;;;;;;5000489;28;20048;-63
2022/08/07 05:18:34;;;;;;;7.00;6.30;;;16.50;78.20;;;;;;5003512;28;20288;-60
2022/08/07 05:21:02;;;;;;;6.32;5.78;;;16.60;79.30;;;;;;5008452;28;20036;-63
2022/08/07 05:24:00;;;;;;;7.18;6.57;;;16.60;79.70;;;;;;5002937;28;20492;-63
2022/08/07 05:26:29;;;;;;;9.13;7.68;;;16.70;80.00;;;;;;5005840;28;20041;-63
2022/08/07 05:28:58;;;;;;;7.05;6.40;;;16.70;79.40;;;;;;5005693;28;20044;-62
2022/08/07 05:31:30;;;;;;;7.75;7.00;;;16.80;79.30;;;;;;5003782;28;20690;-63
2022/08/07 05:33:57;;;;;;;7.95;7.22;;;16.80;79.60;;;;;;5001008;28;20033;-61
2022/08/07 05:36:23;;;;;;;7.82;7.13;;;16.90;79.70;;;;;;5002673;28;20053;-64
2022/08/07 05:38:50;;;;;;;7.45;6.65;;;16.90;79.60;;;;;;5001720;28;20277;-63
2022/08/07 05:41:17;;;;;;;7.07;6.47;;;16.90;79.80;;;;;;5006727;28;20040;-64
2022/08/07 05:43:48;;;;;;;8.65;7.35;;;17.00;80.00;;;;;;4998879;28;20582;-63
2022/08/07 05:46:18;;;;;;;7.82;7.03;;;17.10;80.60;;;;;;5001977;28;20080;-63
2022/08/07 05:48:44;;;;;;;7.70;7.00;;;17.20;80.30;;;;;;5004243;28;20128;-63
2022/08/07 05:51:11;;;;;;;7.88;7.25;;;17.20;80.50;;;;;;5005075;28;20168;-63
2022/08/07 05:53:36;;;;;;;8.15;7.35;;;17.30;80.50;;;;;;5002854;28;20036;-63
2022/08/07 05:56:03;;;;;;;8.10;7.32;;;17.40;80.50;;;;;;5002801;28;20034;-63
2022/08/07 05:58:29;;;;;;;8.63;7.72;;;17.40;80.50;;;;;;5004786;28;20037;-62
2022/08/07 06:00:56;;;;;;;8.50;7.60;;;17.50;80.40;;;;;;5006362;28;20049;-63
2022/08/07 06:03:23;;;;;;;9.23;6.97;;;17.60;80.50;;;;;;5006778;28;20095;-63
2022/08/07 06:05:50;;;;;;;9.23;8.07;;;17.60;80.30;;;;;;5005756;28;20042;-63
2022/08/07 06:08:16;;;;;;;7.72;7.00;;;17.70;80.30;;;;;;5007392;28;20406;-63
2022/08/07 06:10:43;;;;;;;8.40;7.60;;;17.70;80.30;;;;;;5003720;28;20160;-63
2022/08/07 06:13:09;;;;;;;8.85;7.88;;;17.80;80.50;;;;;;5006116;28;20034;-63
2022/08/07 06:15:35;;;;;;;8.18;7.38;;;17.90;80.50;;;;;;5010807;28;20037;-63
2022/08/07 06:18:02;;;;;;;8.82;7.70;;;18.00;80.70;;;;;;5007805;28;20129;-63
2022/08/07 06:20:29;;;;;;;8.23;7.18;;;18.00;80.30;;;;;;5007213;28;20056;-63
2022/08/07 06:22:56;;;;;;;7.80;7.10;;;18.10;80.10;;;;;;5006765;28;20044;-62
2022/08/07 06:25:21;;;;;;;7.85;7.15;;;18.10;79.90;;;;;;5005627;28;20065;-63
2022/08/07 06:27:47;;;;;;;7.72;6.93;;;18.20;80.00;;;;;;5003728;28;22143;-64
2022/08/07 06:30:13;;;;;;;7.38;6.68;;;18.30;79.90;;;;;;5006374;28;20053;-64
2022/08/07 06:32:39;;;;;;;6.95;6.25;;;18.40;79.80;;;;;;5006902;28;20048;-64
2022/08/07 06:35:05;;;;;;;6.97;6.13;;;18.40;79.40;;;;;;5003120;28;20509;-62
2022/08/07 06:37:30;;;;;;;7.18;6.47;;;18.50;79.00;;;;;;5003153;28;20048;-62
2022/08/07 06:39:56;;;;;;;7.93;6.82;;;18.60;78.70;;;;;;5004182;28;20084;-64
2022/08/07 06:42:28;;;;;;;6.50;5.88;;;18.60;78.20;;;;;;5008637;28;20404;-63
2022/08/07 06:44:55;;;;;;;6.82;6.22;;;18.60;78.00;;;;;;5002307;28;20061;-62
2022/08/07 06:47:21;;;;;;;6.75;5.80;;;18.70;77.90;;;;;;5003794;28;20399;-64
2022/08/07 06:49:47;;;;;;;6.80;5.80;;;18.70;77.70;;;;;;5005070;28;21482;-63
2022/08/07 06:52:18;;;;;;;6.63;5.47;;;18.70;77.50;;;;;;5007267;28;20045;-63
2022/08/07 06:54:48;;;;;;;6.35;5.75;;;18.80;77.70;;;;;;5006464;28;20041;-63
2022/08/07 06:57:14;;;;;;;6.20;5.45;;;18.80;77.70;;;;;;5004791;28;20048;-63
2022/08/07 06:59:42;;;;;;;6.00;5.07;;;18.80;77.30;;;;;;5005440;28;20045;-63
2022/08/07 07:02:20;;;;;;;5.30;4.80;;;18.90;77.40;;;;;;5002847;28;20450;-62
2022/08/07 07:04:47;;;;;;;5.05;4.57;;;19.00;77.30;;;;;;5004376;28;20034;-63
2022/08/07 07:07:16;;;;;;;5.72;4.55;;;19.10;77.20;;;;;;5007217;28;20225;-62
2022/08/07 07:09:47;;;;;;;3.90;3.70;;;19.10;77.30;;;;;;5004932;28;20487;-63
2022/08/07 07:12:12;;;;;;;4.00;3.70;;;19.20;76.50;;;;;;4998672;28;20132;-63
2022/08/07 07:14:48;;;;;;;4.30;3.90;;;19.20;76.50;;;;;;5006741;28;20060;-63
2022/08/07 07:17:21;;;;;;;4.40;4.00;;;19.30;75.70;;;;;;5009302;28;21685;-63
2022/08/07 07:19:52;;;;;;;3.63;3.33;;;19.40;75.10;;;;;;5008088;28;20125;-63
2022/08/07 07:22:18;;;;;;;3.40;3.20;;;19.50;74.80;;;;;;5003952;28;20337;-63
2022/08/07 07:24:45;;;;;;;3.17;2.97;;;19.60;74.70;;;;;;5006267;28;21824;-63
2022/08/07 07:27:14;;;;;;;3.38;3.08;;;19.70;74.40;;;;;;5004858;28;20414;-62
2022/08/07 07:29:46;;;;;;;3.90;3.20;;;19.70;73.70;;;;;;4993013;28;20728;-64
2022/08/07 07:32:13;;;;;;;3.05;2.75;;;19.80;73.00;;;;;;5004325;28;20414;-61
2022/08/07 07:34:44;;;;;;;3.63;2.65;;;19.90;72.80;;;;;;4996974;28;20041;-65
2022/08/07 07:37:11;;;;;;;3.45;2.58;;;20.00;72.30;;;;;;4996018;28;20611;-61
2022/08/07 07:39:38;;;;;;;3.20;2.90;;;20.10;72.20;;;;;;5000655;28;20029;-60
2022/08/07 07:42:06;;;;;;;4.40;2.60;;;20.10;71.40;;;;;;5002017;28;20041;-64
2022/08/07 07:44:33;;;;;;;2.80;2.60;;;20.20;71.50;;;;;;4998226;28;20038;-63
2022/08/07 07:47:01;;;;;;;2.92;2.40;;;20.30;71.30;;;;;;5001410;28;20084;-63
2022/08/07 07:49:29;;;;;;;2.33;2.13;;;20.40;70.70;;;;;;4993266;28;20038;-61
2022/08/07 07:51:57;;;;;;;2.08;1.98;;;20.50;69.90;;;;;;4993669;28;20052;-63
2022/08/07 07:54:25;;;;;;;2.42;2.15;;;20.50;70.10;;;;;;4993485;28;20053;-64
2022/08/07 07:56:51;;;;;;;2.53;2.35;;;20.60;69.70;;;;;;5008619;28;20037;-63
2022/08/07 07:59:18;;;;;;;2.58;2.00;;;20.70;69.40;;;;;;5012052;28;20037;-62
2022/08/07 08:01:47;;;;;;;2.22;1.73;;;20.80;69.20;;;;;;5012534;28;20068;-63
2022/08/07 08:04:14;;;;;;;1.77;1.67;;;20.90;69.10;;;;;;5010035;28;20390;-61
2022/08/07 08:06:42;;;;;;;1.95;1.70;;;21.00;68.60;;;;;;5005109;28;20068;-63
2022/08/07 08:09:09;;;;;;;2.85;1.75;;;21.10;67.60;;;;;;5005767;28;20057;-64
2022/08/07 08:11:36;;;;;;;1.75;1.65;;;21.20;67.80;;;;;;4998662;28;20033;-64
2022/08/07 08:14:02;;;;;;;1.80;1.70;;;21.20;66.80;;;;;;4987405;28;20038;-64
2022/08/07 08:16:37;;;;;;;1.52;1.42;;;21.30;66.40;;;;;;4986882;28;20048;-63
2022/08/07 08:19:07;;;;;;;1.67;1.35;;;21.40;65.90;;;;;;4988294;28;20034;-62
2022/08/07 08:27:08;;;;;;;1.70;1.13;;;21.60;65.20;;;;;;4982679;28;20450;-63
2022/08/07 08:29:41;;;;;;;1.35;1.25;;;21.80;65.50;;;;;;4983753;28;20133;-64
2022/08/07 08:32:11;;;;;;;1.30;1.20;;;21.90;63.00;;;;;;4981211;28;20157;-62
2022/08/07 08:34:39;;;;;;;1.33;1.27;;;21.90;63.60;;;;;;4982410;28;20223;-63
2022/08/07 08:37:08;;;;;;;1.27;1.17;;;22.00;63.40;;;;;;4982790;28;20047;-63
2022/08/07 08:39:35;;;;;;;1.25;1.13;;;22.10;63.50;;;;;;4983750;28;20046;-63
2022/08/07 08:42:10;;;;;;;1.83;1.35;;;22.20;63.80;;;;;;4988048;28;20097;-63
2022/08/07 08:44:45;;;;;;;1.10;1.00;;;22.20;62.70;;;;;;4983550;28;20512;-63
2022/08/07 08:47:43;;;;;;;2.42;1.00;;;22.40;63.00;;;;;;4982999;28;20052;-64
2022/08/07 08:50:19;;;;;;;1.38;1.10;;;22.50;62.90;;;;;;4983252;28;20296;-63
2022/08/07 08:53:09;;;;;;;3.60;1.20;;;22.60;61.70;;;;;;4981058;28;20049;-64
2022/08/07 08:55:49;;;;;;;1.50;0.98;;;22.70;61.60;;;;;;4983913;28;20038;-63
2022/08/07 08:58:47;;;;;;;1.00;0.90;;;22.70;60.70;;;;;;4986118;28;20150;-64
2022/08/07 09:01:22;;;;;;;0.90;0.80;;;22.80;60.40;;;;;;4987619;28;20040;-63
2022/08/07 09:03:55;;;;;;;2.78;1.20;;;22.90;60.50;;;;;;4985503;28;22074;-63
2022/08/07 09:06:56;;;;;;;1.73;1.15;;;23.00;61.00;;;;;;4991265;28;20136;-64
2022/08/07 09:09:47;;;;;;;0.85;0.80;;;23.00;58.60;;;;;;5011055;28;20069;-64
2022/08/07 09:12:48;;;;;;;2.42;0.80;;;23.10;59.00;;;;;;5008295;28;20117;-63
2022/08/07 09:15:34;;;;;;;2.53;1.00;;;23.20;58.40;;;;;;5002076;28;20334;-63
2022/08/07 09:18:40;;;;;;;1.17;0.93;;;23.20;58.80;;;;;;5006536;28;20460;-64
2022/08/07 09:21:54;;;;;;;1.15;0.90;;;23.30;58.30;;;;;;4999573;28;20065;-63
2022/08/07 09:24:26;;;;;;;1.30;0.90;;;23.30;58.40;;;;;;4960813;28;20050;-63
2022/08/07 09:27:16;;;;;;;1.83;1.10;;;23.40;58.40;;;;;;4938594;28;20039;-63
2022/08/07 09:29:48;;;;;;;1.17;0.90;;;23.60;58.20;;;;;;4968182;28;20031;-63
2022/08/07 09:32:38;;;;;;;2.65;0.90;;;23.50;57.50;;;;;;4996253;28;20505;-64
2022/08/07 09:35:23;;;;;;;1.08;1.08;;;23.60;57.20;;;;;;5004226;28;20046;-61
2022/08/07 09:38:06;;;;;;;1.17;0.90;;;23.60;57.70;;;;;;4989813;28;20045;-62
2022/08/07 09:40:57;;;;;;;0.95;0.80;;;23.70;56.80;;;;;;4980646;28;20813;-62
2022/08/07 09:43:46;;;;;;;1.42;0.80;;;23.70;56.40;;;;;;4976204;28;20107;-61
2022/08/07 09:46:38;;;;;;;0.77;0.77;;;23.80;56.30;;;;;;4974877;28;20057;-62
2022/08/07 09:49:19;;;;;;;0.88;0.88;;;23.80;56.30;;;;;;5007109;28;20332;-62
2022/08/07 09:52:24;;;;;;;2.05;0.90;;;23.80;55.90;;;;;;4997440;28;20429;-62
2022/08/07 09:55:24;;;;;;;1.67;0.98;;;23.90;55.70;;;;;;4998326;28;20073;-61
2022/08/07 09:58:06;;;;;;;0.70;0.70;;;23.90;55.90;;;;;;5002254;28;20077;-62
2022/08/07 10:00:54;;;;;;;0.80;0.80;;;24.00;56.40;;;;;;5001209;28;20037;-62
2022/08/07 10:03:29;;;;;;;1.38;0.80;;;24.10;55.30;;;;;;4998119;28;20053;-62
2022/08/07 10:06:02;;;;;;;1.23;0.82;;;24.10;56.10;;;;;;5000549;28;20176;-62
2022/08/07 10:08:47;;;;;;;0.70;0.70;;;24.20;55.60;;;;;;5010708;28;20064;-62
2022/08/07 10:11:31;;;;;;;0.95;0.80;;;24.30;56.00;;;;;;5002006;28;20042;-62
2022/08/07 10:14:16;;;;;;;1.27;0.90;;;24.40;55.60;;;;;;5008894;28;20034;-62
2022/08/07 10:17:19;;;;;;;2.10;0.90;;;24.50;55.50;;;;;;5010908;28;20042;-61
2022/08/07 10:19:47;;;;;;;0.73;0.73;;;24.50;53.60;;;;;;5009448;28;20038;-62
2022/08/07 10:22:34;;;;;;;1.17;1.08;;;24.60;55.50;;;;;;5012266;28;20034;-62
2022/08/07 10:25:19;;;;;;;2.80;0.80;;;24.70;54.10;;;;;;5008358;28;20046;-61
2022/08/07 10:27:48;;;;;;;;;;;24.70;53.90;;;;;;5010351;28;20096;-61
2022/08/07 10:30:40;;;;;;;0.90;0.70;;;24.70;54.90;;;;;;5010806;28;20267;-61
2022/08/07 10:33:24;;;;;;;0.88;0.88;;;24.90;53.40;;;;;;5010923;28;20513;-62
2022/08/07 10:36:21;;;;;;;1.10;0.80;;;24.90;53.00;;;;;;5011306;28;20586;-61
2022/08/07 10:38:57;;;;;;;0.77;0.77;;;25.00;53.30;;;;;;5009053;28;20272;-62
2022/08/07 10:41:43;;;;;;;0.80;0.70;;;25.00;53.50;;;;;;5011437;28;20041;-62
2022/08/07 10:44:14;;;;;;;;;;;25.10;52.20;;;;;;5011051;28;20128;-62
2022/08/07 10:47:15;;;;;;;1.23;0.60;;;25.10;53.20;;;;;;5012853;28;19921;-62
2022/08/07 10:50:06;;;;;;;0.60;0.60;;;25.20;52.80;;;;;;5012211;28;20045;-61
2022/08/07 10:52:56;;;;;;;1.00;0.90;;;25.20;52.00;;;;;;5013806;28;20034;-60
2022/08/07 10:55:49;;;;;;;2.65;0.80;;;25.20;52.10;;;;;;5011755;28;20140;-61
2022/08/07 10:58:26;;;;;;;2.35;0.80;;;25.20;52.40;;;;;;5015694;28;20155;-62
2022/08/07 11:01:02;;;;;;;0.70;0.70;;;25.30;52.60;;;;;;5013229;28;20182;-62
2022/08/07 11:04:01;;;;;;;0.65;0.65;;;25.30;52.60;;;;;;5014628;28;20029;-62
2022/08/07 11:07:07;;;;;;;0.70;0.70;;;25.40;52.80;;;;;;5009096;28;20589;-62
2022/08/07 11:09:43;;;;;;;1.15;0.90;;;25.50;51.90;;;;;;5011677;28;20037;-62
2022/08/07 11:12:26;;;;;;;1.02;0.80;;;25.50;52.30;;;;;;5009395;28;20536;-62
2022/08/07 11:14:57;;;;;;;1.35;0.90;;;25.50;51.90;;;;;;5011570;28;20038;-62
2022/08/07 11:17:36;;;;;;;0.90;0.90;;;25.60;52.50;;;;;;5013899;28;20034;-62
2022/08/07 11:20:13;;;;;;;0.80;0.80;;;25.70;52.00;;;;;;5012962;28;20108;-62
2022/08/07 11:23:01;;;;;;;0.90;0.90;;;25.70;52.50;;;;;;5015140;28;20048;-62
2022/08/07 11:25:35;;;;;;;1.45;0.93;;;25.80;51.90;;;;;;5013733;28;20037;-62
2022/08/07 11:28:24;;;;;;;0.80;0.80;;;25.80;51.60;;;;;;5013631;28;20038;-61
2022/08/07 11:31:01;;;;;;;1.13;0.85;;;25.90;51.40;;;;;;4995596;28;20386;-62
2022/08/07 11:33:33;;;;;;;1.20;0.90;;;25.90;51.60;;;;;;5014081;28;20057;-62
2022/08/07 11:36:33;;;;;;;0.90;0.90;;;25.90;51.50;;;;;;5013111;28;20505;-61
2022/08/07 11:39:32;;;;;;;1.27;1.05;;;26.00;51.20;;;;;;5012663;28;20029;-62
2022/08/07 11:42:18;;;;;;;0.85;0.82;;;26.00;50.90;;;;;;5012062;28;20030;-62
2022/08/07 11:45:08;;;;;;;1.15;1.05;;;26.10;51.00;;;;;;5013293;28;20050;-62
2022/08/07 11:47:39;;;;;;;1.58;0.88;;;26.10;51.10;;;;;;5014237;28;20026;-62
2022/08/07 11:50:17;;;;;;;1.98;1.08;;;26.20;50.80;;;;;;5013049;28;20044;-59
2022/08/07 11:52:56;;;;;;;1.02;0.88;;;26.20;50.60;;;;;;5010865;28;20033;-62
2022/08/07 11:55:50;;;;;;;0.88;0.88;;;26.20;50.20;;;;;;5013081;28;20038;-62
2022/08/07 11:58:27;;;;;;;1.00;0.90;;;26.20;50.40;;;;;;5011411;28;20040;-62
2022/08/07 12:01:11;;;;;;;1.10;1.00;;;26.20;50.60;;;;;;5013720;28;20506;-62
2022/08/07 12:03:44;;;;;;;0.80;0.77;;;26.20;50.00;;;;;;5013213;28;20033;-64
2022/08/07 12:06:40;;;;;;;1.58;1.00;;;26.20;50.50;;;;;;5009169;28;20144;-62
2022/08/07 12:09:23;;;;;;;1.00;0.90;;;26.20;49.60;;;;;;5011225;28;20050;-62
2022/08/07 12:11:57;;;;;;;1.38;0.90;;;26.20;50.10;;;;;;5009883;28;20406;-62
2022/08/07 12:14:28;;;;;;;0.82;0.80;;;26.20;49.60;;;;;;5007272;28;20129;-62
2022/08/07 12:17:16;;;;;;;0.90;0.90;;;26.20;51.10;;;;;;5002751;28;20634;-62
2022/08/07 12:20:01;;;;;;;0.85;0.85;;;26.20;48.60;;;;;;5001793;28;20064;-62
2022/08/07 12:22:50;;;;;;;1.23;0.80;;;26.20;49.90;;;;;;5007956;28;20042;-62
2022/08/07 12:25:51;;;;;;;1.13;1.02;;;26.20;50.30;;;;;;5001600;28;20053;-62
2022/08/07 12:28:37;;;;;;;1.15;0.90;;;26.20;49.60;;;;;;5004128;28;20049;-63
2022/08/07 12:31:10;;;;;;;0.75;0.75;;;26.10;49.50;;;;;;4991899;28;20441;-62
2022/08/07 12:33:37;;;;;;;1.33;1.00;;;26.20;49.70;;;;;;5001900;28;20037;-63
2022/08/07 12:36:04;;;;;;;1.05;0.80;;;26.20;50.20;;;;;;4999375;28;20252;-62
2022/08/07 12:38:30;;;;;;;1.15;0.90;;;26.20;50.50;;;;;;5002678;28;20029;-62
2022/08/07 12:40:58;;;;;;;0.80;0.80;;;26.20;49.70;;;;;;5002983;28;20042;-61
2022/08/07 12:43:31;;;;;;;1.35;1.25;;;26.30;49.70;;;;;;5000114;28;20033;-63
2022/08/07 12:46:21;;;;;;;0.82;0.82;;;26.20;49.10;;;;;;5002129;28;20056;-62
2022/08/07 12:49:23;;;;;;;1.08;0.98;;;26.20;49.20;;;;;;5004440;28;20056;-62
2022/08/07 12:52:30;;;;;;;1.85;0.75;;;26.20;49.60;;;;;;5002360;28;20092;-62
2022/08/07 12:55:06;;;;;;;1.33;0.70;;;26.20;50.10;;;;;;4989927;28;20046;-65
2022/08/07 12:57:35;;;;;;;0.85;0.85;;;26.20;49.90;;;;;;5004027;28;20129;-62
2022/08/07 13:00:04;;;;;;;0.90;0.80;;;26.20;49.50;;;;;;4999662;28;20045;-62
2022/08/07 13:02:55;;;;;;;1.38;0.80;;;26.20;49.30;;;;;;5008093;28;20037;-63
2022/08/07 13:06:10;;;;;;;0.60;0.60;;;26.20;48.80;;;;;;5002482;28;20128;-61
2022/08/07 13:08:42;;;;;;;1.60;0.90;;;26.20;48.60;;;;;;5001457;28;20112;-62
2022/08/07 13:11:24;;;;;;;0.70;0.70;;;26.20;48.80;;;;;;4995426;28;20065;-63
2022/08/07 13:14:30;;;;;;;1.35;0.90;;;26.20;48.00;;;;;;5002197;28;20029;-62
2022/08/07 13:17:08;;;;;;;;;;;26.20;47.90;;;;;;5000051;28;20041;-62
2022/08/07 13:19:44;;;;;;;0.70;0.70;;;26.30;49.50;;;;;;5000401;28;19996;-62
2022/08/07 13:22:29;;;;;;;0.60;0.60;;;26.20;48.60;;;;;;5004884;28;20410;-62
2022/08/07 13:25:16;;;;;;;0.88;0.70;;;26.20;48.70;;;;;;4978583;28;20046;-63